TimeCST,TemperatureF,Dew PointF,Humidity,Sea Level PressureIn,VisibilityMPH,Wind Direction,Wind SpeedMPH,Gust SpeedMPH,PrecipitationIn,Events,Conditions,WindDirDegrees,DateUTC
12:54 AM,24.1,16.0,71,30.16,10.0,NNW,12.7,-,N/A,,Clear,330,2013-02-19 06:54:00
1:54 AM,21.9,15.1,75,30.19,10.0,NNW,16.1,-,N/A,,Clear,330,2013-02-19 07:54:00
2:54 AM,19.9,12.9,74,30.21,10.0,NNW,16.1,21.9,N/A,,Clear,340,2013-02-19 08:54:00
3:54 AM,19.0,8.1,62,30.22,10.0,NW,19.6,32.2,N/A,,Clear,320,2013-02-19 09:54:00
4:54 AM,16.0,7.0,68,30.24,10.0,NNW,19.6,27.6,N/A,,Clear,340,2013-02-19 10:54:00
5:54 AM,15.8,6.8,68,30.22,10.0,NNW,17.3,-,N/A,,Clear,330,2013-02-19 11:54:00
6:54 AM,12.9,5.0,71,30.32,10.0,NNW,17.3,23.0,N/A,,Clear,330,2013-02-19 12:54:00
7:54 AM,12.9,3.9,67,30.34,10.0,NNW,18.4,25.3,N/A,,Clear,330,2013-02-19 13:54:00
8:54 AM,15.1,3.0,59,30.38,10.0,NNW,17.3,-,N/A,,Clear,340,2013-02-19 14:54:00
9:54 AM,16.0,1.0,52,30.41,10.0,NW,17.3,-,N/A,,Clear,310,2013-02-19 15:54:00
10:54 AM,19.0,1.0,46,30.40,10.0,NNW,16.1,23.0,N/A,,Clear,330,2013-02-19 16:54:00
12:54 PM,24.1,-0.0,35,30.40,10.0,NW,12.7,20.7,N/A,,Clear,320,2013-02-19 18:54:00
1:54 PM,27.0,-0.9,30,30.38,10.0,NNW,13.8,-,N/A,,Clear,340,2013-02-19 19:54:00
2:54 PM,28.0,-2.9,26,30.37,10.0,NNW,12.7,-,N/A,,Clear,330,2013-02-19 20:54:00
3:54 PM,28.9,-2.9,25,30.35,10.0,North,15.0,-,N/A,,Clear,360,2013-02-19 21:54:00
4:54 PM,28.0,-4.0,25,30.36,10.0,North,8.1,-,N/A,,Clear,360,2013-02-19 22:54:00
6:54 PM,17.1,-0.9,45,30.37,10.0,NNE,9.2,-,N/A,,Clear,20,2013-02-20 00:54:00
7:54 PM,15.1,-0.0,51,30.40,10.0,NNE,8.1,-,N/A,,Clear,20,2013-02-20 01:54:00
8:54 PM,14.0,1.0,56,30.40,10.0,North,9.2,-,N/A,,Clear,10,2013-02-20 02:54:00
9:54 PM,10.9,1.0,64,30.43,10.0,North,8.1,-,N/A,,Clear,10,2013-02-20 03:54:00
10:54 PM,10.0,1.0,67,30.45,10.0,North,5.8,-,N/A,,Clear,10,2013-02-20 04:54:00
11:54 PM,9.0,1.0,70,30.44,10.0,North,6.9,-,N/A,,Clear,10,2013-02-20 05:54:00